createdAt,value
2022-08-17T00:00:43.956Z,58.61
2022-08-17T00:03:04.052Z,58.71
2022-08-17T00:05:34.763Z,58.87
2022-08-17T00:08:02.341Z,58.75
2022-08-17T00:10:29.652Z,58.91
2022-08-17T00:12:59.795Z,59.04
2022-08-17T00:15:27.097Z,58.75
2022-08-17T00:17:54.255Z,59.07
2022-08-17T00:20:23.394Z,58.81
2022-08-17T00:23:18.047Z,59.54
2022-08-17T00:25:46.993Z,58.75
2022-08-17T00:28:16.240Z,58.81
2022-08-17T00:30:50.883Z,58.80
2022-08-17T00:33:31.309Z,58.91
2022-08-17T00:35:59.606Z,58.83
2022-08-17T00:38:27.987Z,58.81
2022-08-17T00:40:59.520Z,58.99
2022-08-17T00:43:44.389Z,59.51
2022-08-17T00:46:17.647Z,59.31
2022-08-17T00:48:45.542Z,59.35
2022-08-17T00:51:41.012Z,59.69
2022-08-17T00:54:16.749Z,59.50
2022-08-17T00:56:48.973Z,59.70
2022-08-17T00:59:19.980Z,59.80
2022-08-17T01:01:49.000Z,59.66
2022-08-17T01:04:18.300Z,59.49
2022-08-17T01:06:47.055Z,59.63
2022-08-17T01:09:15.704Z,59.63
2022-08-17T01:11:44.024Z,59.73
2022-08-17T01:14:11.561Z,59.96
2022-08-17T01:16:39.295Z,59.76
2022-08-17T01:19:21.204Z,60.19
2022-08-17T01:22:03.261Z,60.10
2022-08-17T01:24:31.244Z,60.10
2022-08-17T01:27:01.253Z,60.23
2022-08-17T01:29:33.472Z,60.28
2022-08-17T01:32:03.792Z,60.25
2022-08-17T01:34:39.869Z,60.57
2022-08-17T01:37:12.192Z,60.25
2022-08-17T01:39:47.810Z,60.29
2022-08-17T01:42:23.555Z,60.67
2022-08-17T01:44:55.487Z,60.10
2022-08-17T01:47:23.207Z,60.03
2022-08-17T01:49:51.225Z,60.07
2022-08-17T01:52:18.669Z,60.01
2022-08-17T01:54:47.600Z,59.72
2022-08-17T01:57:14.753Z,59.54
2022-08-17T01:59:41.738Z,59.73
2022-08-17T02:02:08.891Z,59.75
2022-08-17T02:04:36.135Z,59.87
2022-08-17T02:07:03.124Z,60.33
2022-08-17T02:09:30.838Z,60.27
2022-08-17T02:12:38.358Z,60.54
2022-08-17T02:14:50.450Z,60.82
2022-08-17T02:17:17.836Z,60.82
2022-08-17T02:19:44.889Z,60.96
2022-08-17T02:22:12.275Z,60.97
2022-08-17T02:25:00.288Z,61.33
2022-08-17T02:27:27.040Z,61.15
2022-08-17T02:29:53.979Z,61.20
2022-08-17T02:32:28.511Z,61.47
2022-08-17T02:34:59.810Z,61.94
2022-08-17T02:37:28.384Z,61.63
2022-08-17T02:39:59.583Z,61.74
2022-08-17T02:42:31.574Z,61.71
2022-08-17T02:44:59.405Z,61.49
2022-08-17T02:47:27.006Z,61.73
2022-08-17T02:49:55.863Z,62.07
2022-08-17T02:52:43.745Z,61.97
2022-08-17T02:55:15.513Z,62.03
2022-08-17T02:57:42.745Z,61.88
2022-08-17T03:00:13.917Z,62.07
2022-08-17T03:02:43.469Z,61.72
2022-08-17T03:05:12.634Z,61.51
2022-08-17T03:07:39.756Z,61.49
2022-08-17T03:10:08.306Z,61.47
2022-08-17T03:12:38.844Z,61.13
2022-08-17T03:15:11.301Z,60.97
2022-08-17T03:17:38.523Z,60.35
2022-08-17T03:20:07.919Z,60.22
2022-08-17T03:22:41.457Z,60.25
2022-08-17T03:25:19.606Z,59.85
2022-08-17T03:27:50.309Z,59.62
2022-08-17T03:30:18.841Z,59.69
2022-08-17T03:32:50.538Z,59.52
2022-08-17T03:35:22.542Z,59.41
2022-08-17T03:37:51.445Z,59.22
2022-08-17T03:40:34.392Z,58.98
2022-08-17T03:43:16.384Z,58.59
2022-08-17T03:46:02.616Z,58.93
2022-08-17T03:48:48.342Z,58.74
2022-08-17T03:51:40.075Z,58.81
2022-08-17T03:54:27.045Z,58.82
2022-08-17T03:56:59.769Z,59.15
2022-08-17T03:59:26.770Z,58.36
2022-08-17T04:01:58.489Z,57.93
2022-08-17T04:04:27.609Z,57.45
2022-08-17T04:06:55.176Z,57.08
2022-08-17T04:09:22.310Z,56.39
2022-08-17T04:11:49.238Z,56.15
2022-08-17T04:14:16.310Z,55.95
2022-08-17T04:16:44.022Z,55.72
2022-08-17T04:19:11.121Z,55.69
2022-08-17T04:21:38.240Z,55.50
2022-08-17T04:24:05.700Z,55.08
2022-08-17T04:26:52.170Z,55.19
2022-08-17T04:29:20.393Z,55.02
2022-08-17T04:31:48.170Z,54.92
2022-08-17T04:34:15.959Z,54.12
2022-08-17T04:36:47.915Z,53.60
2022-08-17T04:39:17.690Z,52.86
2022-08-17T04:42:03.469Z,52.69
2022-08-17T04:44:37.867Z,52.19
2022-08-17T04:47:05.454Z,51.46
2022-08-17T04:49:32.724Z,49.42
2022-08-17T04:52:04.105Z,46.75
2022-08-17T04:54:31.727Z,44.83
2022-08-17T04:56:58.748Z,43.26
2022-08-17T04:59:25.726Z,41.67
2022-08-17T05:01:52.798Z,40.52
2022-08-17T05:04:33.601Z,39.41
2022-08-17T05:07:04.692Z,38.37
2022-08-17T05:09:31.929Z,37.08
2022-08-17T05:12:02.659Z,35.80
2022-08-17T05:14:32.880Z,35.27
2022-08-17T05:17:01.794Z,35.08
2022-08-17T05:19:33.998Z,34.82
2022-08-17T05:22:05.623Z,33.62
2022-08-17T05:24:42.478Z,33.63
2022-08-17T05:27:18.970Z,32.47
2022-08-17T05:29:46.301Z,32.25
2022-08-17T05:32:38.769Z,31.50
2022-08-17T05:35:01.908Z,30.99
2022-08-17T05:37:29.832Z,30.96
2022-08-17T05:39:56.896Z,32.80
2022-08-17T05:42:24.223Z,33.20
2022-08-17T05:44:51.276Z,34.31
2022-08-17T05:47:18.521Z,34.78
2022-08-17T05:49:48.862Z,35.15
2022-08-17T05:52:31.438Z,35.42
2022-08-17T05:55:16.567Z,35.54
2022-08-17T05:57:53.850Z,36.80
2022-08-17T06:00:32.054Z,36.41
2022-08-17T06:03:33.236Z,34.42
2022-08-17T06:06:32.067Z,31.87
2022-08-17T06:09:30.118Z,30.77
2022-08-17T06:12:19.941Z,30.50
2022-08-17T06:14:59.686Z,30.57
2022-08-17T06:17:28.572Z,31.78
2022-08-17T06:20:11.918Z,29.86
2022-08-17T06:22:46.360Z,28.55
2022-08-17T06:25:35.017Z,27.05
2022-08-17T06:28:14.814Z,25.76
2022-08-17T06:31:00.338Z,26.38
2022-08-17T06:33:35.353Z,24.16
2022-08-17T06:36:25.277Z,24.20
2022-08-17T06:39:02.662Z,23.91
2022-08-17T06:41:32.428Z,22.79
2022-08-17T06:44:04.058Z,22.74
2022-08-17T06:46:36.273Z,23.33
2022-08-17T06:49:14.311Z,24.32
2022-08-17T06:51:46.433Z,25.56
2022-08-17T06:54:25.450Z,26.38
2022-08-17T06:56:59.563Z,25.29
2022-08-17T06:59:54.513Z,25.35
2022-08-17T07:02:52.332Z,26.20
2022-08-17T07:05:38.816Z,26.44
2022-08-17T07:08:18.686Z,24.93
2022-08-17T07:10:55.419Z,23.52
2022-08-17T07:13:51.304Z,22.21
2022-08-17T07:16:35.987Z,22.41
2022-08-17T07:19:04.591Z,22.21
2022-08-17T07:21:41.045Z,21.16
2022-08-17T07:24:47.424Z,20.21
2022-08-17T07:27:31.108Z,19.48
2022-08-17T07:30:11.302Z,20.21
2022-08-17T07:33:00.874Z,19.13
2022-08-17T07:35:40.848Z,18.58
2022-08-17T07:38:25.603Z,18.12
2022-08-17T07:41:03.546Z,17.77
2022-08-17T07:43:39.896Z,18.07
2022-08-17T07:46:34.366Z,17.75
2022-08-17T07:49:03.262Z,17.14
2022-08-17T07:51:37.927Z,16.65
2022-08-17T07:54:29.975Z,16.57
2022-08-17T07:57:08.794Z,16.09
2022-08-17T07:59:38.424Z,16.31
2022-08-17T08:02:16.291Z,16.57
2022-08-17T08:05:10.117Z,15.61
2022-08-17T08:08:00.822Z,14.90
2022-08-17T08:10:35.660Z,15.26
2022-08-17T08:13:28.873Z,15.19
2022-08-17T08:16:26.203Z,15.67
2022-08-17T08:18:58.022Z,15.39
2022-08-17T08:21:51.440Z,14.77
2022-08-17T08:24:49.328Z,15.38
2022-08-17T08:27:27.592Z,13.92
2022-08-17T08:30:05.003Z,14.64
2022-08-17T08:32:50.412Z,14.33
2022-08-17T08:35:26.846Z,14.56
2022-08-17T08:38:09.009Z,14.08
2022-08-17T08:40:57.404Z,14.14
2022-08-17T08:43:27.558Z,13.75
2022-08-17T08:45:57.227Z,14.20
2022-08-17T08:48:55.794Z,13.60
2022-08-17T08:51:56.889Z,14.08
2022-08-17T08:54:42.024Z,13.23
2022-08-17T08:57:42.696Z,13.16
2022-08-17T09:00:23.085Z,13.99
2022-08-17T09:03:19.238Z,14.50
2022-08-17T09:06:28.740Z,14.04
2022-08-17T09:09:29.346Z,14.26
2022-08-17T09:12:11.374Z,13.79
2022-08-17T09:15:04.572Z,13.67
2022-08-17T09:18:14.604Z,12.88
2022-08-17T09:20:50.303Z,13.45
2022-08-17T09:23:59.588Z,12.65
2022-08-17T09:26:54.891Z,13.24
2022-08-17T09:29:27.219Z,14.15
2022-08-17T09:32:01.737Z,13.69
2022-08-17T09:34:50.814Z,13.18
2022-08-17T09:37:28.084Z,13.20
2022-08-17T09:40:10.296Z,13.67
2022-08-17T09:42:55.083Z,13.22
2022-08-17T09:45:27.962Z,12.13
2022-08-17T09:48:12.457Z,11.97
2022-08-17T09:51:05.530Z,12.19
2022-08-17T09:53:31.863Z,12.59
2022-08-17T09:56:06.992Z,13.15
2022-08-17T09:58:52.462Z,13.65
2022-08-17T10:01:38.243Z,12.52
2022-08-17T10:04:30.711Z,12.09
2022-08-17T10:07:16.329Z,12.19
2022-08-17T10:09:51.339Z,11.93
2022-08-17T10:12:30.451Z,11.69
2022-08-17T10:15:23.618Z,11.74
2022-08-17T10:18:13.435Z,11.70
2022-08-17T10:21:27.203Z,11.97
2022-08-17T10:24:38.965Z,12.82
2022-08-17T10:27:11.592Z,12.54
2022-08-17T10:29:55.380Z,12.92
2022-08-17T10:32:35.446Z,13.26
2022-08-17T10:35:18.845Z,13.63
2022-08-17T10:37:51.796Z,13.08
2022-08-17T10:40:40.596Z,13.56
2022-08-17T10:44:37.175Z,12.94
2022-08-17T10:46:52.386Z,13.08
2022-08-17T10:49:21.163Z,14.18
2022-08-17T10:51:53.021Z,13.88
2022-08-17T10:54:32.872Z,13.57
2022-08-17T10:57:00.039Z,13.44
2022-08-17T10:59:36.203Z,12.97
2022-08-17T11:02:12.464Z,12.68
2022-08-17T11:04:54.501Z,13.03
2022-08-17T11:08:13.208Z,14.38
2022-08-17T11:10:53.405Z,13.69
2022-08-17T11:13:41.661Z,14.61
2022-08-17T11:16:11.309Z,15.63
2022-08-17T11:19:37.004Z,14.95
2022-08-17T11:22:34.124Z,13.87
2022-08-17T11:25:17.837Z,13.33
2022-08-17T11:27:53.854Z,13.15
2022-08-17T11:30:43.616Z,13.30
2022-08-17T11:33:36.799Z,13.59
2022-08-17T11:36:31.492Z,15.24
2022-08-17T11:39:13.186Z,15.94
2022-08-17T11:41:44.392Z,14.97
2022-08-17T11:44:15.515Z,14.57
2022-08-17T11:47:31.988Z,14.43
2022-08-17T11:50:38.942Z,14.52
2022-08-17T11:53:06.552Z,15.43
2022-08-17T11:55:38.259Z,15.03
2022-08-17T11:58:29.575Z,16.24
2022-08-17T12:00:59.439Z,17.22
2022-08-17T12:03:33.391Z,18.07
2022-08-17T12:06:17.642Z,18.10
2022-08-17T12:09:00.529Z,18.38
2022-08-17T12:11:55.101Z,19.28
2022-08-17T12:15:06.004Z,19.86
2022-08-17T12:17:40.434Z,19.77
2022-08-17T12:21:26.373Z,21.30
2022-08-17T12:24:17.911Z,21.96
2022-08-17T12:26:56.526Z,22.43
2022-08-17T12:29:35.711Z,22.46
2022-08-17T12:32:07.232Z,24.00
2022-08-17T12:34:42.807Z,23.08
2022-08-17T12:37:20.906Z,23.70
2022-08-17T12:39:57.735Z,25.12
2022-08-17T12:42:29.435Z,24.23
2022-08-17T12:44:56.891Z,24.24
2022-08-17T12:47:24.697Z,24.82
2022-08-17T12:50:29.874Z,24.94
2022-08-17T12:53:01.636Z,25.08
2022-08-17T12:55:32.740Z,25.48
2022-08-17T12:58:02.258Z,25.15
2022-08-17T13:00:47.741Z,25.39
2022-08-17T13:03:21.930Z,25.34
2022-08-17T13:06:06.394Z,26.15
2022-08-17T13:08:45.982Z,25.23
2022-08-17T13:11:18.908Z,25.94
2022-08-17T13:13:52.579Z,25.68
2022-08-17T13:16:24.493Z,26.39
2022-08-17T13:19:06.078Z,26.35
2022-08-17T13:21:34.315Z,25.50
2022-08-17T13:24:19.729Z,25.41
2022-08-17T13:26:50.947Z,25.63
2022-08-17T13:29:25.997Z,25.38
2022-08-17T13:32:04.241Z,25.62
2022-08-17T13:35:11.849Z,25.36
2022-08-17T13:37:32.660Z,25.50
2022-08-17T13:40:21.516Z,26.38
2022-08-17T13:42:52.593Z,26.97
2022-08-17T13:45:36.444Z,26.01
2022-08-17T13:48:10.913Z,25.66
2022-08-17T13:50:41.264Z,26.03
2022-08-17T13:53:40.479Z,26.68
2022-08-17T13:56:37.104Z,26.38
2022-08-17T13:59:09.830Z,26.54
2022-08-17T14:01:53.423Z,26.60
2022-08-17T14:04:25.222Z,27.26
2022-08-17T14:07:09.772Z,26.85
2022-08-17T14:09:47.590Z,27.04
2022-08-17T14:12:17.681Z,27.19
2022-08-17T14:14:45.166Z,27.65
2022-08-17T14:17:12.843Z,27.39
2022-08-17T14:19:39.969Z,28.02
2022-08-17T14:22:11.678Z,28.02
2022-08-17T14:24:44.595Z,28.76
2022-08-17T14:27:12.198Z,28.00
2022-08-17T14:29:41.212Z,28.27
2022-08-17T14:32:24.372Z,27.96
2022-08-17T14:34:52.621Z,28.21
2022-08-17T14:37:21.163Z,27.94
2022-08-17T14:39:48.358Z,28.48
2022-08-17T14:42:15.623Z,28.39
2022-08-17T14:44:42.543Z,28.62
2022-08-17T14:47:15.933Z,28.81
2022-08-17T14:49:43.834Z,29.26
2022-08-17T14:52:19.491Z,29.45
2022-08-17T14:54:46.420Z,28.80
2022-08-17T14:57:24.612Z,28.13
2022-08-17T15:00:00.353Z,28.21
2022-08-17T15:02:29.359Z,28.15
2022-08-17T15:05:05.472Z,29.63
2022-08-17T15:07:32.624Z,29.42
2022-08-17T15:10:02.565Z,29.44
2022-08-17T15:12:33.742Z,30.08
2022-08-17T15:15:04.491Z,29.34
2022-08-17T15:17:44.929Z,29.10
2022-08-17T15:20:16.588Z,29.07
2022-08-17T15:22:45.141Z,29.35
2022-08-17T15:25:14.270Z,29.77
2022-08-17T15:27:41.739Z,29.45
2022-08-17T15:30:10.146Z,29.80
2022-08-17T15:32:40.662Z,30.58
2022-08-17T15:35:11.855Z,29.83
2022-08-17T15:37:40.465Z,30.29
2022-08-17T15:40:09.456Z,30.08
2022-08-17T15:42:40.485Z,30.77
2022-08-17T15:45:13.876Z,30.74
2022-08-17T15:47:41.127Z,30.53
2022-08-17T15:50:09.708Z,30.28
2022-08-17T15:52:40.247Z,30.22
2022-08-17T15:55:12.103Z,30.88
2022-08-17T15:57:39.442Z,30.15
2022-08-17T16:00:09.406Z,30.17
2022-08-17T16:03:44.794Z,30.29
2022-08-17T16:05:30.119Z,30.42
2022-08-17T16:07:58.732Z,30.56
2022-08-17T16:10:35.582Z,31.50
2022-08-17T16:13:04.457Z,31.52
2022-08-17T16:15:31.896Z,31.70
2022-08-17T16:17:59.795Z,30.94
2022-08-17T16:20:27.530Z,31.24
2022-08-17T16:22:55.245Z,31.66
2022-08-17T16:25:52.440Z,31.64
2022-08-17T16:28:16.847Z,31.91
2022-08-17T16:30:44.444Z,31.88
2022-08-17T16:33:12.823Z,32.05
2022-08-17T16:35:42.019Z,31.58
2022-08-17T16:38:09.671Z,31.62
2022-08-17T16:40:38.173Z,31.48
2022-08-17T16:43:10.688Z,31.64
2022-08-17T16:45:40.518Z,31.78
2022-08-17T16:48:09.497Z,32.20
2022-08-17T16:50:37.415Z,32.27
2022-08-17T16:53:10.810Z,32.29
2022-08-17T16:55:38.537Z,32.09
2022-08-17T16:58:06.830Z,31.98
2022-08-17T17:00:36.279Z,31.93
2022-08-17T17:03:19.490Z,32.40
2022-08-17T17:06:29.452Z,31.99
2022-08-17T17:09:00.957Z,32.32
2022-08-17T17:11:38.100Z,32.30
2022-08-17T17:14:34.442Z,32.46
2022-08-17T17:17:06.690Z,32.31
2022-08-17T17:19:42.951Z,32.44
2022-08-17T17:22:48.779Z,32.73
2022-08-17T17:25:29.702Z,32.90
2022-08-17T17:28:08.042Z,32.97
2022-08-17T17:31:10.245Z,33.63
2022-08-17T17:33:48.247Z,33.40
2022-08-17T17:36:24.276Z,33.12
2022-08-17T17:39:23.430Z,33.53
2022-08-17T17:41:57.483Z,33.97
2022-08-17T17:44:38.347Z,34.42
2022-08-17T17:47:05.846Z,34.29
2022-08-17T17:49:45.078Z,34.70
2022-08-17T17:52:37.926Z,34.83
2022-08-17T17:55:30.260Z,35.09
2022-08-17T17:58:09.451Z,34.38
2022-08-17T18:00:47.024Z,35.19
2022-08-17T18:04:03.164Z,34.90
2022-08-17T18:06:45.583Z,35.11
2022-08-17T18:09:54.042Z,35.33
2022-08-17T18:12:48.891Z,35.41
2022-08-17T18:15:35.704Z,35.74
2022-08-17T18:18:14.805Z,35.06
2022-08-17T18:20:53.441Z,34.85
2022-08-17T18:23:28.131Z,35.19
2022-08-17T18:25:57.199Z,35.53
2022-08-17T18:28:36.703Z,35.69
2022-08-17T18:31:03.664Z,35.12
2022-08-17T18:33:30.698Z,35.36
2022-08-17T18:35:58.908Z,35.66
2022-08-17T18:38:33.978Z,35.29
2022-08-17T18:41:19.638Z,35.71
2022-08-17T18:44:06.137Z,35.94
2022-08-17T18:46:37.725Z,36.50
2022-08-17T18:49:26.324Z,36.55
2022-08-17T18:52:21.523Z,36.71
2022-08-17T18:55:24.541Z,36.70
2022-08-17T18:57:56.945Z,37.12
2022-08-17T19:00:26.670Z,36.49
2022-08-17T19:03:15.445Z,37.02
2022-08-17T19:05:46.206Z,36.93
2022-08-17T19:08:23.141Z,37.03
2022-08-17T19:10:56.185Z,37.73
2022-08-17T19:13:38.543Z,37.66
2022-08-17T19:16:19.109Z,37.77
2022-08-17T19:18:56.289Z,37.83
2022-08-17T19:21:30.729Z,37.87
2022-08-17T19:24:06.443Z,38.52
2022-08-17T19:26:54.452Z,38.54
2022-08-17T19:29:41.339Z,39.02
2022-08-17T19:32:10.677Z,38.90
2022-08-17T19:34:39.307Z,38.67
2022-08-17T19:37:29.983Z,38.87
2022-08-17T19:40:51.570Z,39.15
2022-08-17T19:43:38.988Z,39.50
2022-08-17T19:46:26.203Z,39.73
2022-08-17T19:49:03.342Z,39.74
2022-08-17T19:52:10.226Z,40.47
2022-08-17T19:54:45.052Z,40.45
2022-08-17T19:57:12.003Z,40.88
2022-08-17T19:59:49.078Z,40.59
2022-08-17T20:02:42.316Z,40.62
2022-08-17T20:05:15.204Z,40.84
2022-08-17T20:08:00.957Z,41.22
2022-08-17T20:10:54.776Z,41.15
2022-08-17T20:13:49.805Z,41.48
2022-08-17T20:16:18.328Z,41.33
2022-08-17T20:19:07.267Z,41.88
2022-08-17T20:21:34.129Z,41.68
2022-08-17T20:24:20.346Z,42.05
2022-08-17T20:27:09.788Z,42.06
2022-08-17T20:29:55.307Z,42.41
2022-08-17T20:32:35.655Z,42.62
2022-08-17T20:35:09.793Z,42.62
2022-08-17T20:37:43.254Z,42.63
2022-08-17T20:40:10.207Z,42.50
2022-08-17T20:42:37.706Z,42.67
2022-08-17T20:45:26.275Z,43.24
2022-08-17T20:48:30.563Z,42.89
2022-08-17T20:50:56.279Z,43.08
2022-08-17T20:53:45.128Z,43.68
2022-08-17T20:56:44.156Z,43.85
2022-08-17T20:59:27.625Z,43.55
2022-08-17T21:02:17.698Z,44.03
2022-08-17T21:04:48.726Z,44.20
2022-08-17T21:07:42.621Z,44.28
2022-08-17T21:10:14.043Z,44.33
2022-08-17T21:13:02.719Z,44.73
2022-08-17T21:15:56.946Z,44.94
2022-08-17T21:18:52.836Z,44.97
2022-08-17T21:21:59.178Z,45.80
2022-08-17T21:25:00.211Z,45.34
2022-08-17T21:27:42.350Z,45.52
2022-08-17T21:30:10.225Z,45.65
2022-08-17T21:32:42.045Z,45.47
2022-08-17T21:35:12.496Z,45.72
2022-08-17T21:37:44.658Z,45.71
2022-08-17T21:40:11.610Z,45.91
2022-08-17T21:42:46.762Z,46.26
2022-08-17T21:45:27.371Z,46.69
2022-08-17T21:48:17.368Z,46.56
2022-08-17T21:50:57.340Z,46.68
2022-08-17T21:53:32.863Z,46.76
2022-08-17T21:56:00.886Z,46.87
2022-08-17T21:58:32.082Z,47.24
2022-08-17T22:01:23.959Z,47.43
2022-08-17T22:04:04.104Z,47.69
2022-08-17T22:06:34.299Z,47.75
2022-08-17T22:09:09.407Z,47.97
2022-08-17T22:11:56.308Z,48.30
2022-08-17T22:14:27.316Z,48.17
2022-08-17T22:17:41.509Z,48.24
2022-08-17T22:20:14.573Z,48.73
2022-08-17T22:23:21.830Z,48.74
2022-08-17T22:26:09.588Z,49.04
2022-08-17T22:28:47.006Z,49.11
2022-08-17T22:31:29.372Z,49.17
2022-08-17T22:34:02.235Z,49.29
2022-08-17T22:36:41.323Z,49.47
2022-08-17T22:39:11.057Z,49.71
2022-08-17T22:41:54.028Z,50.58
2022-08-17T22:44:37.837Z,49.94
2022-08-17T22:47:24.156Z,49.99
2022-08-17T22:50:03.840Z,50.32
2022-08-17T22:53:00.490Z,51.08
2022-08-17T22:55:51.128Z,50.52
2022-08-17T22:58:40.612Z,50.71
2022-08-17T23:01:26.348Z,50.83
2022-08-17T23:04:01.524Z,50.89
2022-08-17T23:06:29.941Z,50.86
2022-08-17T23:08:58.136Z,51.09
2022-08-17T23:11:36.764Z,51.40
2022-08-17T23:14:19.270Z,51.42
2022-08-17T23:16:47.420Z,51.74
2022-08-17T23:19:19.030Z,51.54
2022-08-17T23:21:46.896Z,51.69
2022-08-17T23:24:26.095Z,52.09
2022-08-17T23:26:57.161Z,51.63
2022-08-17T23:29:25.717Z,51.84
2022-08-17T23:31:52.923Z,51.98
2022-08-17T23:34:19.956Z,52.52
2022-08-17T23:36:52.622Z,52.43
2022-08-17T23:39:24.365Z,52.46
2022-08-17T23:41:53.610Z,52.84
2022-08-17T23:44:24.171Z,53.07
2022-08-17T23:46:51.905Z,53.29
2022-08-17T23:49:19.369Z,53.17
2022-08-17T23:51:49.005Z,53.39
2022-08-17T23:54:20.521Z,53.55
2022-08-17T23:56:47.712Z,53.59
2022-08-17T23:59:20.658Z,53.84
